sensor_id;sensor_type;location;lat;lon;timestamp;temperature;humidity
69901;DHT22;57183;50.930;5.406;2022-11-22T00:02:19;8.20;99.90
69901;DHT22;57183;50.930;5.406;2022-11-22T00:04:45;8.20;99.90
69901;DHT22;57183;50.930;5.406;2022-11-22T00:07:11;8.30;99.90
69901;DHT22;57183;50.930;5.406;2022-11-22T00:09:36;8.20;99.90
69901;DHT22;57183;50.930;5.406;2022-11-22T00:12:02;8.20;99.90
69901;DHT22;57183;50.930;5.406;2022-11-22T00:14:28;8.30;99.90
69901;DHT22;57183;50.930;5.406;2022-11-22T00:16:54;8.20;99.90
69901;DHT22;57183;50.930;5.406;2022-11-22T00:19:19;8.20;99.90
69901;DHT22;57183;50.930;5.406;2022-11-22T00:21:45;8.20;99.90
69901;DHT22;57183;50.930;5.406;2022-11-22T00:24:14;8.20;99.90
69901;DHT22;57183;50.930;5.406;2022-11-22T00:26:40;8.10;99.90
69901;DHT22;57183;50.930;5.406;2022-11-22T00:29:06;8.10;99.90
69901;DHT22;57183;50.930;5.406;2022-11-22T00:31:32;8.10;99.90
69901;DHT22;57183;50.930;5.406;2022-11-22T00:33:57;8.10;99.90
69901;DHT22;57183;50.930;5.406;2022-11-22T00:36:23;8.10;99.90
69901;DHT22;57183;50.930;5.406;2022-11-22T00:38:49;8.20;99.90
69901;DHT22;57183;50.930;5.406;2022-11-22T00:41:15;8.20;99.90
69901;DHT22;57183;50.930;5.406;2022-11-22T00:43:41;8.20;99.90
69901;DHT22;57183;50.930;5.406;2022-11-22T00:46:06;8.30;99.90
69901;DHT22;57183;50.930;5.406;2022-11-22T00:48:32;8.20;99.90
69901;DHT22;57183;50.930;5.406;2022-11-22T00:50:58;8.30;99.90
69901;DHT22;57183;50.930;5.406;2022-11-22T00:53:24;8.20;99.90
69901;DHT22;57183;50.930;5.406;2022-11-22T00:55:49;8.10;99.90
69901;DHT22;57183;50.930;5.406;2022-11-22T00:58:15;8.10;99.90
69901;DHT22;57183;50.930;5.406;2022-11-22T01:00:41;8.10;99.90
69901;DHT22;57183;50.930;5.406;2022-11-22T01:03:10;8.10;99.90
69901;DHT22;57183;50.930;5.406;2022-11-22T01:05:36;8.10;99.90
69901;DHT22;57183;50.930;5.406;2022-11-22T01:08:01;8.10;99.90
69901;DHT22;57183;50.930;5.406;2022-11-22T01:10:27;8.20;99.90
69901;DHT22;57183;50.930;5.406;2022-11-22T01:12:53;8.20;99.90
69901;DHT22;57183;50.930;5.406;2022-11-22T01:15:18;8.10;99.90
69901;DHT22;57183;50.930;5.406;2022-11-22T01:17:44;8.10;99.90
69901;DHT22;57183;50.930;5.406;2022-11-22T01:20:10;8.10;99.90
69901;DHT22;57183;50.930;5.406;2022-11-22T01:22:35;8.20;99.90
69901;DHT22;57183;50.930;5.406;2022-11-22T01:25:01;8.30;99.90
69901;DHT22;57183;50.930;5.406;2022-11-22T01:27:27;8.30;99.90
69901;DHT22;57183;50.930;5.406;2022-11-22T01:29:52;8.20;99.90
69901;DHT22;57183;50.930;5.406;2022-11-22T01:32:18;8.20;99.90
69901;DHT22;57183;50.930;5.406;2022-11-22T01:34:44;8.00;99.90
69901;DHT22;57183;50.930;5.406;2022-11-22T01:37:09;7.90;99.90
69901;DHT22;57183;50.930;5.406;2022-11-22T01:39:35;7.90;99.90
69901;DHT22;57183;50.930;5.406;2022-11-22T01:42:00;7.80;99.90
69901;DHT22;57183;50.930;5.406;2022-11-22T01:44:29;7.90;99.90
69901;DHT22;57183;50.930;5.406;2022-11-22T01:47:12;7.80;99.90
69901;DHT22;57183;50.930;5.406;2022-11-22T01:52:20;7.80;99.90
69901;DHT22;57183;50.930;5.406;2022-11-22T01:55:03;7.80;99.90
69901;DHT22;57183;50.930;5.406;2022-11-22T01:57:34;7.80;99.90
69901;DHT22;57183;50.930;5.406;2022-11-22T02:00:05;7.70;99.90
69901;DHT22;57183;50.930;5.406;2022-11-22T02:02:33;7.80;99.90
69901;DHT22;57183;50.930;5.406;2022-11-22T02:05:03;7.70;99.90
69901;DHT22;57183;50.930;5.406;2022-11-22T02:07:49;7.70;99.90
69901;DHT22;57183;50.930;5.406;2022-11-22T02:10:17;7.80;99.90
69901;DHT22;57183;50.930;5.406;2022-11-22T02:12:45;7.70;99.90
69901;DHT22;57183;50.930;5.406;2022-11-22T02:15:11;7.60;99.90
69901;DHT22;57183;50.930;5.406;2022-11-22T02:17:37;7.50;99.90
69901;DHT22;57183;50.930;5.406;2022-11-22T02:20:03;7.60;99.90
69901;DHT22;57183;50.930;5.406;2022-11-22T02:22:46;7.70;99.90
69901;DHT22;57183;50.930;5.406;2022-11-22T02:28:03;7.70;99.90
69901;DHT22;57183;50.930;5.406;2022-11-22T02:30:29;7.60;99.90
69901;DHT22;57183;50.930;5.406;2022-11-22T02:32:55;7.60;99.90
69901;DHT22;57183;50.930;5.406;2022-11-22T02:35:22;7.60;99.90
69901;DHT22;57183;50.930;5.406;2022-11-22T02:37:51;7.70;99.90
69901;DHT22;57183;50.930;5.406;2022-11-22T02:40:20;7.60;99.90
69901;DHT22;57183;50.930;5.406;2022-11-22T02:42:51;7.60;99.90
69901;DHT22;57183;50.930;5.406;2022-11-22T02:45:20;7.70;99.90
69901;DHT22;57183;50.930;5.406;2022-11-22T02:47:45;7.70;99.90
69901;DHT22;57183;50.930;5.406;2022-11-22T02:50:11;7.70;99.90
69901;DHT22;57183;50.930;5.406;2022-11-22T02:52:36;7.70;99.90
69901;DHT22;57183;50.930;5.406;2022-11-22T02:55:02;7.70;99.90
69901;DHT22;57183;50.930;5.406;2022-11-22T02:57:28;7.60;99.90
69901;DHT22;57183;50.930;5.406;2022-11-22T02:59:54;7.50;99.90
69901;DHT22;57183;50.930;5.406;2022-11-22T03:02:19;7.50;99.90
69901;DHT22;57183;50.930;5.406;2022-11-22T03:04:45;7.50;99.90
69901;DHT22;57183;50.930;5.406;2022-11-22T03:07:11;7.50;99.90
69901;DHT22;57183;50.930;5.406;2022-11-22T03:09:36;7.60;99.90
69901;DHT22;57183;50.930;5.406;2022-11-22T03:12:02;7.60;99.90
69901;DHT22;57183;50.930;5.406;2022-11-22T03:14:28;7.50;99.90
69901;DHT22;57183;50.930;5.406;2022-11-22T03:16:54;7.60;99.90
69901;DHT22;57183;50.930;5.406;2022-11-22T03:19:20;7.60;99.90
69901;DHT22;57183;50.930;5.406;2022-11-22T03:21:46;7.50;99.90
69901;DHT22;57183;50.930;5.406;2022-11-22T03:24:12;7.40;99.90
69901;DHT22;57183;50.930;5.406;2022-11-22T03:26:38;7.50;99.90
69901;DHT22;57183;50.930;5.406;2022-11-22T03:29:04;7.40;99.90
69901;DHT22;57183;50.930;5.406;2022-11-22T03:31:29;7.30;99.90
69901;DHT22;57183;50.930;5.406;2022-11-22T03:33:55;7.30;99.90
69901;DHT22;57183;50.930;5.406;2022-11-22T03:36:21;7.30;99.90
69901;DHT22;57183;50.930;5.406;2022-11-22T03:38:47;7.30;99.90
69901;DHT22;57183;50.930;5.406;2022-11-22T03:41:14;7.20;99.90
69901;DHT22;57183;50.930;5.406;2022-11-22T03:43:43;7.20;99.90
69901;DHT22;57183;50.930;5.406;2022-11-22T03:46:16;7.20;99.90
69901;DHT22;57183;50.930;5.406;2022-11-22T03:48:44;7.20;99.90
69901;DHT22;57183;50.930;5.406;2022-11-22T03:51:09;7.10;99.90
69901;DHT22;57183;50.930;5.406;2022-11-22T03:53:36;7.10;99.90
69901;DHT22;57183;50.930;5.406;2022-11-22T03:56:01;7.10;99.90
69901;DHT22;57183;50.930;5.406;2022-11-22T03:58:27;7.10;99.90
69901;DHT22;57183;50.930;5.406;2022-11-22T04:00:53;7.10;99.90
69901;DHT22;57183;50.930;5.406;2022-11-22T04:03:20;7.10;99.90
69901;DHT22;57183;50.930;5.406;2022-11-22T04:05:45;7.00;99.90
69901;DHT22;57183;50.930;5.406;2022-11-22T04:08:12;7.00;99.90
69901;DHT22;57183;50.930;5.406;2022-11-22T04:10:37;7.00;99.90
69901;DHT22;57183;50.930;5.406;2022-11-22T04:13:03;7.10;99.90
69901;DHT22;57183;50.930;5.406;2022-11-22T04:15:29;7.10;99.90
69901;DHT22;57183;50.930;5.406;2022-11-22T04:17:54;7.00;99.90
69901;DHT22;57183;50.930;5.406;2022-11-22T04:20:22;7.00;99.90
69901;DHT22;57183;50.930;5.406;2022-11-22T04:23:12;7.00;99.90
69901;DHT22;57183;50.930;5.406;2022-11-22T04:25:44;7.00;99.90
69901;DHT22;57183;50.930;5.406;2022-11-22T04:28:11;7.00;99.90
69901;DHT22;57183;50.930;5.406;2022-11-22T04:30:37;7.00;99.90
69901;DHT22;57183;50.930;5.406;2022-11-22T04:33:22;6.90;99.90
69901;DHT22;57183;50.930;5.406;2022-11-22T04:35:48;6.90;99.90
69901;DHT22;57183;50.930;5.406;2022-11-22T04:38:15;6.80;99.90
69901;DHT22;57183;50.930;5.406;2022-11-22T04:40:41;6.80;99.90
69901;DHT22;57183;50.930;5.406;2022-11-22T04:43:09;6.80;99.90
69901;DHT22;57183;50.930;5.406;2022-11-22T04:45:57;6.80;99.90
69901;DHT22;57183;50.930;5.406;2022-11-22T04:48:23;6.80;99.90
69901;DHT22;57183;50.930;5.406;2022-11-22T04:50:48;6.80;99.90
69901;DHT22;57183;50.930;5.406;2022-11-22T04:53:50;6.70;99.90
69901;DHT22;57183;50.930;5.406;2022-11-22T04:56:15;6.70;99.90
69901;DHT22;57183;50.930;5.406;2022-11-22T04:58:41;6.70;99.90
69901;DHT22;57183;50.930;5.406;2022-11-22T05:01:07;6.70;99.90
69901;DHT22;57183;50.930;5.406;2022-11-22T05:03:33;6.80;99.90
69901;DHT22;57183;50.930;5.406;2022-11-22T05:06:04;6.80;99.90
69901;DHT22;57183;50.930;5.406;2022-11-22T05:08:30;6.80;99.90
69901;DHT22;57183;50.930;5.406;2022-11-22T05:10:56;6.60;99.90
69901;DHT22;57183;50.930;5.406;2022-11-22T05:13:31;6.70;99.90
69901;DHT22;57183;50.930;5.406;2022-11-22T05:15:58;6.80;99.90
69901;DHT22;57183;50.930;5.406;2022-11-22T05:18:25;6.80;99.90
69901;DHT22;57183;50.930;5.406;2022-11-22T05:20:51;6.80;99.90
69901;DHT22;57183;50.930;5.406;2022-11-22T05:23:17;6.60;99.90
69901;DHT22;57183;50.930;5.406;2022-11-22T05:26:01;6.70;99.90
69901;DHT22;57183;50.930;5.406;2022-11-22T05:28:29;6.70;99.90
69901;DHT22;57183;50.930;5.406;2022-11-22T05:30:55;6.70;99.90
69901;DHT22;57183;50.930;5.406;2022-11-22T05:33:21;6.70;99.90
69901;DHT22;57183;50.930;5.406;2022-11-22T05:35:50;6.50;99.90
69901;DHT22;57183;50.930;5.406;2022-11-22T05:38:15;6.60;99.90
69901;DHT22;57183;50.930;5.406;2022-11-22T05:40:41;6.60;99.90
69901;DHT22;57183;50.930;5.406;2022-11-22T05:43:07;6.70;99.90
69901;DHT22;57183;50.930;5.406;2022-11-22T05:45:33;6.60;99.90
69901;DHT22;57183;50.930;5.406;2022-11-22T05:47:59;6.60;99.90
69901;DHT22;57183;50.930;5.406;2022-11-22T05:50:24;6.60;99.90
69901;DHT22;57183;50.930;5.406;2022-11-22T05:52:50;6.60;99.90
69901;DHT22;57183;50.930;5.406;2022-11-22T05:55:16;6.60;99.90
69901;DHT22;57183;50.930;5.406;2022-11-22T05:57:42;6.70;99.90
69901;DHT22;57183;50.930;5.406;2022-11-22T06:00:08;6.80;99.90
69901;DHT22;57183;50.930;5.406;2022-11-22T06:02:34;6.70;99.90
69901;DHT22;57183;50.930;5.406;2022-11-22T06:05:00;6.60;99.90
69901;DHT22;57183;50.930;5.406;2022-11-22T06:07:25;6.50;99.90
69901;DHT22;57183;50.930;5.406;2022-11-22T06:09:51;6.40;99.90
69901;DHT22;57183;50.930;5.406;2022-11-22T06:12:16;6.40;99.90
69901;DHT22;57183;50.930;5.406;2022-11-22T06:14:44;6.50;99.90
69901;DHT22;57183;50.930;5.406;2022-11-22T06:17:10;6.50;99.90
69901;DHT22;57183;50.930;5.406;2022-11-22T06:19:35;6.40;99.90
69901;DHT22;57183;50.930;5.406;2022-11-22T06:22:01;6.40;99.90
69901;DHT22;57183;50.930;5.406;2022-11-22T06:24:27;6.50;99.90
69901;DHT22;57183;50.930;5.406;2022-11-22T06:26:52;6.60;99.90
69901;DHT22;57183;50.930;5.406;2022-11-22T06:29:18;6.50;99.90
69901;DHT22;57183;50.930;5.406;2022-11-22T06:31:44;6.60;99.90
69901;DHT22;57183;50.930;5.406;2022-11-22T06:34:13;6.70;99.90
69901;DHT22;57183;50.930;5.406;2022-11-22T06:36:38;6.70;99.90
69901;DHT22;57183;50.930;5.406;2022-11-22T06:39:05;6.80;99.90
69901;DHT22;57183;50.930;5.406;2022-11-22T06:41:33;6.90;99.90
69901;DHT22;57183;50.930;5.406;2022-11-22T06:44:02;6.90;99.90
69901;DHT22;57183;50.930;5.406;2022-11-22T06:46:28;6.80;99.90
69901;DHT22;57183;50.930;5.406;2022-11-22T06:48:53;6.80;99.90
69901;DHT22;57183;50.930;5.406;2022-11-22T06:51:22;6.80;99.90
69901;DHT22;57183;50.930;5.406;2022-11-22T06:53:49;6.80;99.90
69901;DHT22;57183;50.930;5.406;2022-11-22T06:56:18;6.80;99.90
69901;DHT22;57183;50.930;5.406;2022-11-22T06:58:45;7.00;99.90
69901;DHT22;57183;50.930;5.406;2022-11-22T07:01:21;7.00;99.90
69901;DHT22;57183;50.930;5.406;2022-11-22T07:03:48;7.00;99.90
69901;DHT22;57183;50.930;5.406;2022-11-22T07:06:15;7.10;99.90
69901;DHT22;57183;50.930;5.406;2022-11-22T07:08:42;7.20;99.90
69901;DHT22;57183;50.930;5.406;2022-11-22T07:11:13;7.20;99.90
69901;DHT22;57183;50.930;5.406;2022-11-22T07:13:39;7.30;99.90
69901;DHT22;57183;50.930;5.406;2022-11-22T07:16:08;7.30;99.90
69901;DHT22;57183;50.930;5.406;2022-11-22T07:18:34;7.30;99.90
69901;DHT22;57183;50.930;5.406;2022-11-22T07:21:11;7.30;99.90
69901;DHT22;57183;50.930;5.406;2022-11-22T07:23:39;7.30;99.90
69901;DHT22;57183;50.930;5.406;2022-11-22T07:26:05;7.30;99.90
69901;DHT22;57183;50.930;5.406;2022-11-22T07:28:31;7.20;99.90
69901;DHT22;57183;50.930;5.406;2022-11-22T07:31:01;7.20;99.90
69901;DHT22;57183;50.930;5.406;2022-11-22T07:33:27;7.30;99.90
69901;DHT22;57183;50.930;5.406;2022-11-22T07:35:53;7.20;99.90
69901;DHT22;57183;50.930;5.406;2022-11-22T07:38:19;7.30;99.90
69901;DHT22;57183;50.930;5.406;2022-11-22T07:40:45;7.40;99.90
69901;DHT22;57183;50.930;5.406;2022-11-22T07:43:10;7.50;99.90
69901;DHT22;57183;50.930;5.406;2022-11-22T07:45:36;7.50;99.90
69901;DHT22;57183;50.930;5.406;2022-11-22T07:48:02;7.60;99.90
69901;DHT22;57183;50.930;5.406;2022-11-22T07:50:28;7.70;99.90
69901;DHT22;57183;50.930;5.406;2022-11-22T07:52:57;7.70;99.90
69901;DHT22;57183;50.930;5.406;2022-11-22T07:55:24;7.70;99.90
69901;DHT22;57183;50.930;5.406;2022-11-22T07:57:52;7.60;99.90
69901;DHT22;57183;50.930;5.406;2022-11-22T08:00:18;7.70;99.90
69901;DHT22;57183;50.930;5.406;2022-11-22T08:02:44;7.60;99.90
69901;DHT22;57183;50.930;5.406;2022-11-22T08:05:10;7.70;99.90
69901;DHT22;57183;50.930;5.406;2022-11-22T08:07:36;7.70;99.90
69901;DHT22;57183;50.930;5.406;2022-11-22T08:10:02;7.90;99.90
69901;DHT22;57183;50.930;5.406;2022-11-22T08:12:28;7.90;99.90
69901;DHT22;57183;50.930;5.406;2022-11-22T08:14:53;8.00;99.90
69901;DHT22;57183;50.930;5.406;2022-11-22T08:17:19;8.00;99.90
69901;DHT22;57183;50.930;5.406;2022-11-22T08:19:45;8.10;99.90
69901;DHT22;57183;50.930;5.406;2022-11-22T08:22:11;8.10;99.90
69901;DHT22;57183;50.930;5.406;2022-11-22T08:24:36;8.10;99.90
69901;DHT22;57183;50.930;5.406;2022-11-22T08:27:02;8.10;99.90
69901;DHT22;57183;50.930;5.406;2022-11-22T08:29:28;8.20;99.90
69901;DHT22;57183;50.930;5.406;2022-11-22T08:31:54;8.10;99.90
69901;DHT22;57183;50.930;5.406;2022-11-22T08:34:19;8.10;99.90
69901;DHT22;57183;50.930;5.406;2022-11-22T08:36:45;8.00;99.90
69901;DHT22;57183;50.930;5.406;2022-11-22T08:39:11;8.10;99.90
69901;DHT22;57183;50.930;5.406;2022-11-22T08:41:36;8.10;99.90
69901;DHT22;57183;50.930;5.406;2022-11-22T08:44:02;8.10;99.90
69901;DHT22;57183;50.930;5.406;2022-11-22T08:46:28;8.10;99.90
69901;DHT22;57183;50.930;5.406;2022-11-22T08:48:53;8.20;99.90
69901;DHT22;57183;50.930;5.406;2022-11-22T08:51:19;8.20;99.90
69901;DHT22;57183;50.930;5.406;2022-11-22T08:53:45;8.20;99.90
69901;DHT22;57183;50.930;5.406;2022-11-22T08:56:12;8.10;99.90
69901;DHT22;57183;50.930;5.406;2022-11-22T08:58:38;8.20;99.90
69901;DHT22;57183;50.930;5.406;2022-11-22T09:01:09;8.20;99.90
69901;DHT22;57183;50.930;5.406;2022-11-22T09:03:36;8.10;99.90
69901;DHT22;57183;50.930;5.406;2022-11-22T09:06:04;8.20;99.90
69901;DHT22;57183;50.930;5.406;2022-11-22T09:08:30;8.40;99.90
69901;DHT22;57183;50.930;5.406;2022-11-22T09:10:59;8.40;99.90
69901;DHT22;57183;50.930;5.406;2022-11-22T09:13:26;8.60;99.90
69901;DHT22;57183;50.930;5.406;2022-11-22T09:15:52;8.70;99.90
69901;DHT22;57183;50.930;5.406;2022-11-22T09:18:17;8.70;99.90
69901;DHT22;57183;50.930;5.406;2022-11-22T09:20:43;8.70;99.90
69901;DHT22;57183;50.930;5.406;2022-11-22T09:23:09;8.70;99.90
69901;DHT22;57183;50.930;5.406;2022-11-22T09:25:35;8.80;99.90
69901;DHT22;57183;50.930;5.406;2022-11-22T09:28:01;8.90;99.90
69901;DHT22;57183;50.930;5.406;2022-11-22T09:30:28;8.80;99.90
69901;DHT22;57183;50.930;5.406;2022-11-22T09:32:54;8.80;99.90
69901;DHT22;57183;50.930;5.406;2022-11-22T09:35:19;8.80;99.90
69901;DHT22;57183;50.930;5.406;2022-11-22T09:37:46;8.90;99.90
69901;DHT22;57183;50.930;5.406;2022-11-22T09:40:12;9.00;99.90
69901;DHT22;57183;50.930;5.406;2022-11-22T09:43:01;9.10;99.90
69901;DHT22;57183;50.930;5.406;2022-11-22T09:55:44;9.30;99.90
69901;DHT22;57183;50.930;5.406;2022-11-22T10:01:00;9.40;99.90
69901;DHT22;57183;50.930;5.406;2022-11-22T10:06:05;9.30;99.90
69901;DHT22;57183;50.930;5.406;2022-11-22T10:22:27;9.50;99.90
69901;DHT22;57183;50.930;5.406;2022-11-22T10:24:54;9.50;99.90
69901;DHT22;57183;50.930;5.406;2022-11-22T10:27:20;9.50;99.90
69901;DHT22;57183;50.930;5.406;2022-11-22T10:30:00;9.60;99.90
69901;DHT22;57183;50.930;5.406;2022-11-22T10:45:48;9.60;99.90
69901;DHT22;57183;50.930;5.406;2022-11-22T10:48:32;9.70;99.90
69901;DHT22;57183;50.930;5.406;2022-11-22T10:51:26;9.80;99.90
69901;DHT22;57183;50.930;5.406;2022-11-22T10:54:16;9.80;99.90
69901;DHT22;57183;50.930;5.406;2022-11-22T11:05:04;9.90;99.90
69901;DHT22;57183;50.930;5.406;2022-11-22T11:07:31;10.00;99.90
69901;DHT22;57183;50.930;5.406;2022-11-22T11:10:03;10.10;99.90
69901;DHT22;57183;50.930;5.406;2022-11-22T11:16:10;10.00;99.90
69901;DHT22;57183;50.930;5.406;2022-11-22T11:18:55;10.10;99.90
69901;DHT22;57183;50.930;5.406;2022-11-22T11:21:22;10.00;99.90
69901;DHT22;57183;50.930;5.406;2022-11-22T11:23:48;10.00;99.90
69901;DHT22;57183;50.930;5.406;2022-11-22T11:31:51;9.90;99.90
69901;DHT22;57183;50.930;5.406;2022-11-22T11:34:28;10.00;99.90
69901;DHT22;57183;50.930;5.406;2022-11-22T11:37:00;10.00;99.90
69901;DHT22;57183;50.930;5.406;2022-11-22T11:39:28;10.00;99.90
69901;DHT22;57183;50.930;5.406;2022-11-22T11:41:55;10.00;99.90
69901;DHT22;57183;50.930;5.406;2022-11-22T11:44:35;10.00;99.90
69901;DHT22;57183;50.930;5.406;2022-11-22T11:47:04;9.90;99.90
69901;DHT22;57183;50.930;5.406;2022-11-22T11:49:32;10.10;99.90
69901;DHT22;57183;50.930;5.406;2022-11-22T11:52:00;10.20;99.90
69901;DHT22;57183;50.930;5.406;2022-11-22T11:54:38;10.20;99.90
69901;DHT22;57183;50.930;5.406;2022-11-22T12:04:57;10.50;99.90
69901;DHT22;57183;50.930;5.406;2022-11-22T12:09:51;10.50;99.90
69901;DHT22;57183;50.930;5.406;2022-11-22T12:17:30;10.80;99.90
69901;DHT22;57183;50.930;5.406;2022-11-22T12:20:13;10.70;99.90
69901;DHT22;57183;50.930;5.406;2022-11-22T12:25:34;10.50;99.90
69901;DHT22;57183;50.930;5.406;2022-11-22T12:28:23;10.40;99.90
69901;DHT22;57183;50.930;5.406;2022-11-22T12:31:01;10.40;99.90
69901;DHT22;57183;50.930;5.406;2022-11-22T12:33:43;10.40;99.90
69901;DHT22;57183;50.930;5.406;2022-11-22T12:36:40;10.50;99.90
69901;DHT22;57183;50.930;5.406;2022-11-22T12:39:02;10.50;99.90
69901;DHT22;57183;50.930;5.406;2022-11-22T12:41:31;10.40;99.90
69901;DHT22;57183;50.930;5.406;2022-11-22T12:44:02;10.40;99.90
69901;DHT22;57183;50.930;5.406;2022-11-22T12:46:39;10.50;99.90
69901;DHT22;57183;50.930;5.406;2022-11-22T12:52:31;10.60;99.90
69901;DHT22;57183;50.930;5.406;2022-11-22T13:00:14;10.70;99.90
69901;DHT22;57183;50.930;5.406;2022-11-22T13:02:58;10.50;99.90
69901;DHT22;57183;50.930;5.406;2022-11-22T13:05:28;10.40;99.90
69901;DHT22;57183;50.930;5.406;2022-11-22T13:08:12;10.30;99.90
69901;DHT22;57183;50.930;5.406;2022-11-22T13:10:47;10.30;99.90
69901;DHT22;57183;50.930;5.406;2022-11-22T13:13:33;10.30;99.90
69901;DHT22;57183;50.930;5.406;2022-11-22T13:16:02;10.20;99.90
69901;DHT22;57183;50.930;5.406;2022-11-22T13:18:33;10.20;99.90
69901;DHT22;57183;50.930;5.406;2022-11-22T13:26:36;10.00;99.90
69901;DHT22;57183;50.930;5.406;2022-11-22T13:29:15;10.10;99.90
69901;DHT22;57183;50.930;5.406;2022-11-22T13:37:29;10.00;99.90
69901;DHT22;57183;50.930;5.406;2022-11-22T13:40:24;9.90;99.90
69901;DHT22;57183;50.930;5.406;2022-11-22T13:45:51;9.70;99.90
69901;DHT22;57183;50.930;5.406;2022-11-22T13:51:11;9.70;99.90
69901;DHT22;57183;50.930;5.406;2022-11-22T13:53:39;9.70;99.90
69901;DHT22;57183;50.930;5.406;2022-11-22T14:06:49;9.60;99.90
69901;DHT22;57183;50.930;5.406;2022-11-22T14:09:31;9.60;99.90
69901;DHT22;57183;50.930;5.406;2022-11-22T14:20:53;9.40;99.90
69901;DHT22;57183;50.930;5.406;2022-11-22T14:29:01;9.30;99.90
69901;DHT22;57183;50.930;5.406;2022-11-22T14:31:33;9.30;99.90
69901;DHT22;57183;50.930;5.406;2022-11-22T14:34:20;9.30;99.90
69901;DHT22;57183;50.930;5.406;2022-11-22T14:47:55;9.40;99.90
69901;DHT22;57183;50.930;5.406;2022-11-22T14:50:27;9.30;99.90
69901;DHT22;57183;50.930;5.406;2022-11-22T14:52:59;9.30;99.90
69901;DHT22;57183;50.930;5.406;2022-11-22T14:55:32;9.40;99.90
69901;DHT22;57183;50.930;5.406;2022-11-22T14:58:05;9.40;99.90
69901;DHT22;57183;50.930;5.406;2022-11-22T15:15:13;9.60;99.90
69901;DHT22;57183;50.930;5.406;2022-11-22T15:17:31;9.70;99.90
69901;DHT22;57183;50.930;5.406;2022-11-22T15:20:02;9.70;99.90
69901;DHT22;57183;50.930;5.406;2022-11-22T15:22:28;9.70;99.90
69901;DHT22;57183;50.930;5.406;2022-11-22T15:24:56;9.80;99.90
69901;DHT22;57183;50.930;5.406;2022-11-22T15:27:39;9.80;99.90
69901;DHT22;57183;50.930;5.406;2022-11-22T15:30:10;9.90;99.90
69901;DHT22;57183;50.930;5.406;2022-11-22T15:32:44;9.90;99.90
69901;DHT22;57183;50.930;5.406;2022-11-22T15:35:18;9.90;99.90
69901;DHT22;57183;50.930;5.406;2022-11-22T15:37:54;9.90;99.90
69901;DHT22;57183;50.930;5.406;2022-11-22T15:40:22;9.90;99.90
69901;DHT22;57183;50.930;5.406;2022-11-22T15:42:54;9.90;99.90
69901;DHT22;57183;50.930;5.406;2022-11-22T15:45:23;10.00;99.90
69901;DHT22;57183;50.930;5.406;2022-11-22T15:48:05;9.90;99.90
69901;DHT22;57183;50.930;5.406;2022-11-22T15:50:31;10.00;99.90
69901;DHT22;57183;50.930;5.406;2022-11-22T15:55:38;10.00;99.90
69901;DHT22;57183;50.930;5.406;2022-11-22T15:58:03;10.00;99.90
69901;DHT22;57183;50.930;5.406;2022-11-22T16:00:32;10.00;99.90
69901;DHT22;57183;50.930;5.406;2022-11-22T16:03:00;10.00;99.90
69901;DHT22;57183;50.930;5.406;2022-11-22T16:05:32;10.00;99.90
69901;DHT22;57183;50.930;5.406;2022-11-22T16:08:02;10.00;99.90
69901;DHT22;57183;50.930;5.406;2022-11-22T16:13:25;10.10;99.90
69901;DHT22;57183;50.930;5.406;2022-11-22T16:18:41;10.30;99.90
69901;DHT22;57183;50.930;5.406;2022-11-22T16:23:45;10.20;99.90
69901;DHT22;57183;50.930;5.406;2022-11-22T16:28:47;10.20;99.90
69901;DHT22;57183;50.930;5.406;2022-11-22T16:33:45;10.20;99.90
69901;DHT22;57183;50.930;5.406;2022-11-22T16:36:14;10.20;99.90
69901;DHT22;57183;50.930;5.406;2022-11-22T16:38:40;10.20;99.90
69901;DHT22;57183;50.930;5.406;2022-11-22T16:41:24;10.20;99.90
69901;DHT22;57183;50.930;5.406;2022-11-22T16:43:55;10.30;99.90
69901;DHT22;57183;50.930;5.406;2022-11-22T16:46:21;10.30;99.90
69901;DHT22;57183;50.930;5.406;2022-11-22T16:48:47;10.30;99.90
69901;DHT22;57183;50.930;5.406;2022-11-22T16:51:15;10.40;99.90
69901;DHT22;57183;50.930;5.406;2022-11-22T16:53:42;10.30;99.90
69901;DHT22;57183;50.930;5.406;2022-11-22T16:56:17;10.30;99.90
69901;DHT22;57183;50.930;5.406;2022-11-22T16:58:44;10.40;99.90
69901;DHT22;57183;50.930;5.406;2022-11-22T17:01:15;10.40;99.90
69901;DHT22;57183;50.930;5.406;2022-11-22T17:03:42;10.50;99.90
69901;DHT22;57183;50.930;5.406;2022-11-22T17:06:15;10.40;99.90
69901;DHT22;57183;50.930;5.406;2022-11-22T17:08:43;10.30;99.90
69901;DHT22;57183;50.930;5.406;2022-11-22T17:11:10;10.30;99.90
69901;DHT22;57183;50.930;5.406;2022-11-22T17:13:35;10.40;99.90
69901;DHT22;57183;50.930;5.406;2022-11-22T17:16:01;10.40;99.90
69901;DHT22;57183;50.930;5.406;2022-11-22T17:18:27;10.40;99.90
69901;DHT22;57183;50.930;5.406;2022-11-22T17:20:53;10.30;99.90
69901;DHT22;57183;50.930;5.406;2022-11-22T17:23:38;10.40;99.90
69901;DHT22;57183;50.930;5.406;2022-11-22T17:26:04;10.30;99.90
69901;DHT22;57183;50.930;5.406;2022-11-22T17:28:30;10.20;99.90
69901;DHT22;57183;50.930;5.406;2022-11-22T17:31:00;10.40;99.90
69901;DHT22;57183;50.930;5.406;2022-11-22T17:33:27;10.40;99.90
69901;DHT22;57183;50.930;5.406;2022-11-22T17:35:53;10.40;99.90
69901;DHT22;57183;50.930;5.406;2022-11-22T17:38:20;10.40;99.90
69901;DHT22;57183;50.930;5.406;2022-11-22T17:40:46;10.40;99.90
69901;DHT22;57183;50.930;5.406;2022-11-22T17:43:14;10.40;99.90
69901;DHT22;57183;50.930;5.406;2022-11-22T17:45:43;10.40;99.90
69901;DHT22;57183;50.930;5.406;2022-11-22T17:48:12;10.30;99.90
69901;DHT22;57183;50.930;5.406;2022-11-22T17:50:38;10.30;99.90
69901;DHT22;57183;50.930;5.406;2022-11-22T17:53:04;10.40;99.90
69901;DHT22;57183;50.930;5.406;2022-11-22T17:55:30;10.30;99.90
69901;DHT22;57183;50.930;5.406;2022-11-22T17:57:56;10.30;99.90
69901;DHT22;57183;50.930;5.406;2022-11-22T18:00:22;10.40;99.90
69901;DHT22;57183;50.930;5.406;2022-11-22T18:02:47;10.40;99.90
69901;DHT22;57183;50.930;5.406;2022-11-22T18:05:13;10.40;99.90
69901;DHT22;57183;50.930;5.406;2022-11-22T18:07:39;10.40;99.90
69901;DHT22;57183;50.930;5.406;2022-11-22T18:10:07;10.60;99.90
69901;DHT22;57183;50.930;5.406;2022-11-22T18:12:34;10.50;99.90
69901;DHT22;57183;50.930;5.406;2022-11-22T18:15:01;10.50;99.90
69901;DHT22;57183;50.930;5.406;2022-11-22T18:17:29;10.50;99.90
69901;DHT22;57183;50.930;5.406;2022-11-22T18:19:55;10.50;99.90
69901;DHT22;57183;50.930;5.406;2022-11-22T18:22:20;10.50;99.90
69901;DHT22;57183;50.930;5.406;2022-11-22T18:24:46;10.50;99.90
69901;DHT22;57183;50.930;5.406;2022-11-22T18:27:12;10.50;99.90
69901;DHT22;57183;50.930;5.406;2022-11-22T18:29:38;10.30;99.90
69901;DHT22;57183;50.930;5.406;2022-11-22T18:32:05;10.40;99.90
69901;DHT22;57183;50.930;5.406;2022-11-22T18:34:32;10.40;99.90
69901;DHT22;57183;50.930;5.406;2022-11-22T18:36:58;10.40;99.90
69901;DHT22;57183;50.930;5.406;2022-11-22T18:39:24;10.40;99.90
69901;DHT22;57183;50.930;5.406;2022-11-22T18:41:52;10.30;99.90
69901;DHT22;57183;50.930;5.406;2022-11-22T18:44:18;10.40;99.90
69901;DHT22;57183;50.930;5.406;2022-11-22T18:46:43;10.50;99.90
69901;DHT22;57183;50.930;5.406;2022-11-22T18:49:09;10.40;99.90